Time;durP1;ratioP1;P1;durP2;ratioP2;P2;SDS_P1;SDS_P2;PMS_P1;PMS_P2;Temp;Humidity;BMP_temperature;BMP_pressure;BME280_temperature;BME280_humidity;BME280_pressure;Samples;Min_cycle;Max_cycle;Signal;HPM_P1;HPM_P2
2021/03/17 00:02:56;;;;;;;32.23;27.50;;;;;;;3.28;75.02;100450.86;128066;1101;22576;-78
2021/03/17 00:05:45;;;;;;;32.78;28.92;;;;;;;3.27;74.82;100456.21;128155;1101;22496;-78
2021/03/17 00:08:33;;;;;;;32.73;28.87;;;;;;;3.26;74.54;100457.97;128279;1099;22491;-79
2021/03/17 00:11:20;;;;;;;38.10;30.90;;;;;;;3.25;74.60;100460.70;128237;1101;22931;-78
2021/03/17 00:14:19;;;;;;;40.45;33.33;;;;;;;3.20;75.23;100455.00;128240;1100;22492;-77
2021/03/17 00:17:06;;;;;;;39.55;32.90;;;;;;;3.20;75.59;100453.24;128016;1100;22526;-77
2021/03/17 00:19:53;;;;;;;35.33;31.52;;;;;;;3.21;75.27;100457.51;128087;1101;22579;-77
2021/03/17 00:22:41;;;;;;;38.30;31.90;;;;;;;3.23;74.84;100455.62;128256;1100;22616;-78
2021/03/17 00:25:33;;;;;;;35.15;29.37;;;;;;;3.22;75.43;100451.33;128088;1101;24664;-77
2021/03/17 00:28:26;;;;;;;38.13;31.52;;;;;;;3.21;74.74;100447.06;128066;1100;24322;-80
2021/03/17 00:31:14;;;;;;;35.90;32.03;;;;;;;3.17;74.98;100447.43;128177;1101;24600;-77
2021/03/17 00:34:01;;;;;;;38.65;34.55;;;;;;;3.16;75.31;100449.19;128209;1101;22578;-79
2021/03/17 00:36:47;;;;;;;37.25;32.35;;;;;;;3.15;74.98;100444.92;128023;1101;22489;-78
2021/03/17 00:39:35;;;;;;;39.88;33.80;;;;;;;3.14;75.56;100445.88;127978;1099;24676;-80
2021/03/17 00:42:22;;;;;;;38.73;34.58;;;;;;;3.18;75.20;100447.30;127973;1101;22492;-77
2021/03/17 00:45:10;;;;;;;38.80;33.78;;;;;;;3.20;75.36;100448.02;127992;1101;22522;-77
2021/03/17 00:47:57;;;;;;;38.53;33.58;;;;;;;3.23;76.04;100445.18;128172;1100;25038;-77
2021/03/17 00:50:27;;;;;;;39.50;33.67;;;;;;;3.30;75.31;100451.59;128000;1101;22526;-77
2021/03/17 00:52:56;;;;;;;40.27;34.47;;;;;;;3.35;75.41;100445.99;128009;1101;22602;-77
2021/03/17 00:55:25;;;;;;;46.53;37.15;;;;;;;3.37;75.95;100441.49;128199;1101;24621;-78
2021/03/17 00:58:00;;;;;;;45.60;37.28;;;;;;;3.37;75.20;100446.72;127971;1101;22499;-78
2021/03/17 01:00:29;;;;;;;47.30;39.10;;;;;;;3.38;75.27;100445.76;128015;1099;22519;-78
2021/03/17 01:02:57;;;;;;;45.33;39.85;;;;;;;3.40;75.90;100440.41;127976;1101;22492;-78
2021/03/17 01:05:26;;;;;;;50.83;40.35;;;;;;;3.41;75.84;100442.91;127956;1100;25786;-78
2021/03/17 01:07:54;;;;;;;42.98;38.02;;;;;;;3.44;75.43;100452.30;128008;1099;23310;-78
2021/03/17 01:10:38;;;;;;;48.35;42.15;;;;;;;3.46;75.55;100450.37;127997;1100;22936;-78
2021/03/17 01:13:06;;;;;;;49.40;43.48;;;;;;;3.47;75.18;100452.06;128230;1099;22521;-78
2021/03/17 01:15:34;;;;;;;55.48;42.58;;;;;;;3.49;75.08;100450.14;128208;1099;22493;-78
2021/03/17 01:18:04;;;;;;;54.55;44.20;;;;;;;3.51;75.19;100443.85;128009;1101;22522;-78
2021/03/17 01:20:34;;;;;;;54.50;45.35;;;;;;;3.50;75.83;100442.20;128249;1099;23403;-78
2021/03/17 01:23:03;;;;;;;56.35;45.30;;;;;;;3.51;75.36;100440.41;128276;1099;22526;-78
2021/03/17 01:25:41;;;;;;;55.35;45.80;;;;;;;3.49;75.84;100448.35;127988;1101;22525;-79
2021/03/17 01:28:11;;;;;;;59.08;47.85;;;;;;;3.47;75.62;100446.84;128278;1099;22528;-79
2021/03/17 01:30:48;;;;;;;61.50;47.70;;;;;;;3.45;74.95;100441.72;127999;1101;22512;-78
2021/03/17 01:33:17;;;;;;;52.13;46.37;;;;;;;3.44;75.58;100447.07;128195;1100;22531;-79
2021/03/17 01:35:48;;;;;;;60.35;49.53;;;;;;;3.44;75.36;100449.69;128207;1101;22488;-78
2021/03/17 01:38:16;;;;;;;59.88;50.10;;;;;;;3.47;75.44;100446.84;128234;1099;22489;-79
2021/03/17 01:40:46;;;;;;;62.25;50.25;;;;;;;3.41;74.94;100432.47;128202;1101;22617;-78
2021/03/17 01:43:15;;;;;;;62.80;49.63;;;;;;;3.39;75.57;100436.14;128243;1099;22696;-78
2021/03/17 01:45:45;;;;;;;64.60;53.70;;;;;;;3.37;75.04;100433.66;128024;1101;22504;-79
2021/03/17 01:48:16;;;;;;;;;;;;;;;3.30;75.68;100435.92;128022;1099;25291;-78
2021/03/17 01:50:49;;;;;;;65.52;53.83;;;;;;;3.25;75.57;100438.04;127970;1101;21307;-79
2021/03/17 01:53:27;;;;;;;68.05;54.63;;;;;;;3.29;75.85;100442.06;127985;1101;22608;-78
2021/03/17 01:55:57;;;;;;;68.70;56.48;;;;;;;3.31;76.23;100447.19;128236;1099;24447;-78
2021/03/17 01:58:27;;;;;;;64.82;55.88;;;;;;;3.37;75.99;100440.67;128215;1101;22492;-78
2021/03/17 02:00:55;;;;;;;67.80;57.50;;;;;;;3.40;76.27;100441.27;127988;1101;22482;-78
2021/03/17 02:03:26;;;;;;;69.77;58.60;;;;;;;3.44;75.62;100441.84;128273;1101;24581;-78
2021/03/17 02:05:55;;;;;;;68.10;57.00;;;;;;;3.47;75.88;100441.61;128096;1101;22772;-78
2021/03/17 02:08:41;;;;;;;72.80;58.28;;;;;;;3.48;76.05;100436.25;128295;1099;22501;-78
2021/03/17 02:11:13;;;;;;;69.30;59.67;;;;;;;3.53;75.43;100441.11;128010;1101;24561;-78
2021/03/17 02:13:48;;;;;;;71.28;59.65;;;;;;;3.57;75.43;100432.10;128242;1100;22524;-78
2021/03/17 02:16:25;;;;;;;70.67;60.38;;;;;;;3.60;75.63;100426.64;128241;1101;24673;-78
2021/03/17 02:19:13;;;;;;;72.58;61.28;;;;;;;3.62;76.07;100435.16;128223;1100;22526;-78
2021/03/17 02:21:56;;;;;;;70.50;59.77;;;;;;;3.64;75.66;100442.91;128219;1099;24701;-78
2021/03/17 02:25:01;;;;;;;71.77;59.80;;;;;;;3.63;75.50;100442.08;128234;1099;22520;-79
2021/03/17 02:28:11;;;;;;;72.67;57.50;;;;;;;3.67;75.53;100442.66;128253;1100;25821;-78
2021/03/17 02:30:53;;;;;;;69.32;59.08;;;;;;;3.68;75.35;100429.46;127929;1104;22605;-79
2021/03/17 02:33:55;;;;;;;72.32;61.33;;;;;;;3.70;75.78;100439.81;127972;1104;22787;-78
2021/03/17 02:37:02;;;;;;;69.00;58.98;;;;;;;3.68;75.17;100432.08;127949;1104;25073;-78
2021/03/17 02:39:39;;;;;;;70.62;61.35;;;;;;;3.67;75.10;100433.03;127964;1105;22611;-78
2021/03/17 02:42:21;;;;;;;69.45;60.70;;;;;;;3.69;74.94;100438.13;127943;1105;22532;-78
2021/03/17 02:44:57;;;;;;;68.42;59.23;;;;;;;3.71;74.96;100433.63;127965;1103;22702;-78
2021/03/17 02:47:30;;;;;;;67.82;60.43;;;;;;;3.71;74.83;100429.22;127961;1103;22496;-78
2021/03/17 02:50:03;;;;;;;64.00;57.10;;;;;;;3.74;75.00;100425.54;127510;1105;24906;-78
2021/03/17 02:52:37;;;;;;;60.15;53.05;;;;;;;3.75;75.56;100433.25;127936;1103;22623;-78
2021/03/17 02:55:08;;;;;;;66.15;57.00;;;;;;;3.78;74.74;100430.39;127919;1103;22505;-78
2021/03/17 02:57:41;;;;;;;64.37;55.73;;;;;;;3.78;74.95;100421.73;127992;1102;22482;-78
2021/03/17 03:00:13;;;;;;;67.42;59.50;;;;;;;3.75;74.79;100429.80;127931;1104;22528;-78
2021/03/17 03:02:43;;;;;;;71.70;60.25;;;;;;;3.70;74.40;100427.57;128214;1099;22526;-78
2021/03/17 03:05:14;;;;;;;68.67;60.65;;;;;;;3.67;75.00;100430.42;128226;1100;22575;-78
2021/03/17 03:07:48;;;;;;;68.92;58.52;;;;;;;3.64;74.25;100428.05;128033;1101;24320;-77
2021/03/17 03:10:19;;;;;;;76.70;62.05;;;;;;;3.61;74.63;100433.52;128050;1100;22697;-78
2021/03/17 03:12:49;;;;;;;74.55;64.30;;;;;;;3.58;74.89;100431.14;128072;1101;22526;-78
2021/03/17 03:15:20;;;;;;;73.72;62.58;;;;;;;3.58;74.34;100433.75;128284;1101;22498;-78
2021/03/17 03:17:50;;;;;;;78.00;65.60;;;;;;;3.55;74.32;100428.77;128327;1100;22489;-76
2021/03/17 03:20:22;;;;;;;77.85;64.58;;;;;;;3.54;74.32;100435.78;128056;1101;22684;-78
2021/03/17 03:22:54;;;;;;;78.20;65.57;;;;;;;3.55;74.62;100439.22;128277;1100;24581;-78
2021/03/17 03:25:24;;;;;;;78.00;65.95;;;;;;;3.53;74.25;100430.66;128247;1101;22681;-78
2021/03/17 03:27:55;;;;;;;77.30;64.62;;;;;;;3.51;74.08;100443.03;128019;1100;22595;-78
2021/03/17 03:30:27;;;;;;;74.65;63.90;;;;;;;3.47;74.10;100436.39;127997;1101;22522;-78
2021/03/17 03:32:56;;;;;;;74.53;64.95;;;;;;;3.44;74.26;100444.46;128276;1099;24069;-79
2021/03/17 03:35:24;;;;;;;79.82;65.00;;;;;;;3.43;74.21;100453.22;128034;1101;24377;-78
2021/03/17 03:37:53;;;;;;;76.75;63.83;;;;;;;3.43;75.09;100448.00;128009;1101;24597;-79
2021/03/17 03:40:22;;;;;;;82.95;66.50;;;;;;;3.42;74.86;100454.18;128102;1101;23310;-78
2021/03/17 03:42:50;;;;;;;81.05;64.47;;;;;;;3.41;74.21;100452.53;128181;1101;22572;-78
2021/03/17 03:45:20;;;;;;;87.75;66.53;;;;;;;3.41;74.80;100455.14;128241;1101;22566;-77
2021/03/17 03:47:48;;;;;;;77.20;63.95;;;;;;;3.43;74.52;100453.22;128018;1101;22641;-78
2021/03/17 03:50:21;;;;;;;84.70;66.28;;;;;;;3.40;74.56;100456.07;128027;1101;22808;-78
2021/03/17 03:53:14;;;;;;;77.65;65.95;;;;;;;3.38;74.31;100461.42;128013;1101;24578;-78
2021/03/17 03:56:05;;;;;;;86.07;69.43;;;;;;;3.36;74.47;100467.71;128256;1101;22520;-78
2021/03/17 03:58:59;;;;;;;84.87;70.83;;;;;;;3.32;74.66;100458.45;128282;1101;24594;-78
2021/03/17 04:01:55;;;;;;;85.53;69.85;;;;;;;3.29;74.32;100467.35;128023;1101;22474;-78
2021/03/17 04:04:37;;;;;;;89.75;72.58;;;;;;;3.27;74.58;100464.05;128272;1099;22599;-78
2021/03/17 04:07:06;;;;;;;86.82;72.10;;;;;;;3.24;75.21;100462.49;128287;1099;24732;-78
2021/03/17 04:09:49;;;;;;;77.90;66.60;;;;;;;3.27;74.72;100467.48;128046;1101;22523;-78
2021/03/17 04:12:20;;;;;;;;;;;;;;;3.23;74.72;100462.59;128240;1101;22514;-78
2021/03/17 04:14:57;;;;;;;93.72;77.90;;;;;;;3.19;74.48;100466.40;128189;1099;22038;-78
2021/03/17 04:17:38;;;;;;;88.05;74.05;;;;;;;3.22;75.38;100463.55;127984;1100;22598;-79
2021/03/17 04:20:11;;;;;;;96.15;77.85;;;;;;;3.22;75.30;100466.98;128255;1099;23403;-78
2021/03/17 04:22:40;;;;;;;92.60;74.95;;;;;;;3.24;75.39;100465.11;128135;1101;22498;-78
2021/03/17 04:25:11;;;;;;;90.07;72.62;;;;;;;3.27;74.63;100472.70;128235;1101;22505;-78
2021/03/17 04:27:46;;;;;;;89.30;73.42;;;;;;;3.26;74.24;100468.41;128025;1101;22515;-78
2021/03/17 04:30:16;;;;;;;88.10;70.80;;;;;;;3.28;74.29;100463.91;128059;1101;22492;-78
2021/03/17 04:32:48;;;;;;;79.25;67.85;;;;;;;3.28;74.31;100469.13;128008;1100;22903;-78
2021/03/17 04:35:18;;;;;;;83.92;66.97;;;;;;;3.28;74.44;100474.36;128046;1101;22612;-78
2021/03/17 04:37:50;;;;;;;90.12;71.22;;;;;;;3.26;74.26;100481.47;127998;1101;22622;-78
2021/03/17 04:40:19;;;;;;;86.17;69.05;;;;;;;3.27;75.05;100475.31;128036;1100;22505;-77
2021/03/17 04:42:47;;;;;;;85.00;68.80;;;;;;;3.24;74.39;100477.34;128214;1099;22496;-77
2021/03/17 04:45:18;;;;;;;85.97;68.65;;;;;;;3.23;74.79;100481.73;127976;1101;22487;-77
2021/03/17 04:47:51;;;;;;;85.85;66.85;;;;;;;3.21;74.66;100475.78;127963;1101;22525;-78
2021/03/17 04:50:25;;;;;;;72.67;60.28;;;;;;;3.17;74.61;100474.36;127967;1101;22660;-79
2021/03/17 04:52:54;;;;;;;79.17;62.33;;;;;;;3.12;74.24;100481.70;128273;1100;22615;-79
2021/03/17 04:55:24;;;;;;;75.28;61.40;;;;;;;3.10;74.82;100480.14;127976;1101;24324;-78
2021/03/17 04:57:53;;;;;;;76.80;60.78;;;;;;;3.04;74.95;100486.68;128314;1100;24695;-78
2021/03/17 05:00:24;;;;;;;72.85;58.48;;;;;;;3.02;74.50;100489.39;127986;1099;22479;-78
2021/03/17 05:03:00;;;;;;;72.22;59.20;;;;;;;2.98;74.86;100481.92;128280;1100;22622;-78
2021/03/17 05:05:33;;;;;;;74.05;57.43;;;;;;;2.93;74.15;100484.03;128127;1101;24578;-78
2021/03/17 05:08:06;;;;;;;67.72;58.55;;;;;;;2.89;74.11;100491.25;128066;1100;22614;-78
2021/03/17 05:10:37;;;;;;;69.32;55.23;;;;;;;2.90;75.05;100500.77;127993;1101;22550;-78
2021/03/17 05:13:12;;;;;;;77.32;59.98;;;;;;;2.88;74.66;100494.00;128046;1100;22520;-79
2021/03/17 05:15:41;;;;;;;72.90;60.12;;;;;;;2.87;74.33;100505.39;128221;1101;22487;-79
2021/03/17 05:18:15;;;;;;;72.03;59.55;;;;;;;2.90;74.40;100502.52;128044;1101;24529;-78
2021/03/17 05:20:48;;;;;;;73.97;61.83;;;;;;;2.90;75.06;100499.91;128020;1101;23344;-78
2021/03/17 05:23:18;;;;;;;69.95;61.92;;;;;;;2.89;75.16;100511.30;127980;1101;22572;-78
2021/03/17 05:25:48;;;;;;;72.15;58.10;;;;;;;2.85;75.13;100507.27;127974;1101;22563;-78
2021/03/17 05:28:18;;;;;;;62.23;54.27;;;;;;;2.82;74.89;100514.36;128051;1100;22494;-78
2021/03/17 05:30:53;;;;;;;55.83;49.03;;;;;;;2.80;74.45;100515.45;128065;1099;22594;-78
2021/03/17 05:33:27;;;;;;;57.75;49.93;;;;;;;2.76;75.08;100520.03;128025;1101;22483;-78
2021/03/17 05:35:56;;;;;;;55.15;48.30;;;;;;;2.68;74.09;100522.39;128182;1101;22487;-78
2021/03/17 05:38:24;;;;;;;57.67;49.00;;;;;;;2.57;74.23;100527.57;127983;1101;24577;-78
2021/03/17 05:40:55;;;;;;;66.37;55.25;;;;;;;2.53;74.58;100531.32;127977;1101;22493;-78
2021/03/17 05:43:24;;;;;;;68.80;53.48;;;;;;;2.44;74.58;100530.23;128005;1101;24436;-77
2021/03/17 05:45:55;;;;;;;70.50;54.67;;;;;;;2.32;74.43;100536.32;127964;1101;23358;-78
2021/03/17 05:48:26;;;;;;;64.35;53.02;;;;;;;2.16;74.53;100543.56;128075;1100;22497;-78
2021/03/17 05:50:55;;;;;;;71.25;56.53;;;;;;;2.00;73.88;100542.06;128246;1101;22525;-78
2021/03/17 05:53:23;;;;;;;67.65;54.10;;;;;;;1.92;74.28;100552.17;127987;1101;22497;-78
2021/03/17 05:55:52;;;;;;;73.28;57.88;;;;;;;1.91;75.43;100560.11;127988;1100;22505;-78
2021/03/17 05:58:22;;;;;;;65.70;50.53;;;;;;;1.87;75.23;100557.72;128066;1101;22657;-78
2021/03/17 06:00:50;;;;;;;59.58;44.35;;;;;;;1.82;75.10;100565.00;128376;1100;24585;-78
2021/03/17 06:03:19;;;;;;;54.85;42.80;;;;;;;1.78;75.12;100566.16;128032;1101;22595;-77
2021/03/17 06:05:48;;;;;;;53.55;43.00;;;;;;;1.66;74.94;100572.20;127992;1101;22567;-78
2021/03/17 06:08:29;;;;;;;57.80;44.30;;;;;;;1.56;75.29;100571.17;127976;1101;24455;-77
2021/03/17 06:10:59;;;;;;;59.77;46.00;;;;;;;1.46;75.46;100575.34;128007;1101;25116;-79
2021/03/17 06:13:32;;;;;;;58.13;45.40;;;;;;;1.44;75.50;100575.45;128187;1101;22520;-78
2021/03/17 06:16:06;;;;;;;64.58;48.02;;;;;;;1.40;74.97;100587.84;128253;1101;24455;-78
2021/03/17 06:18:41;;;;;;;53.90;43.20;;;;;;;1.36;75.32;100586.36;128207;1101;22613;-79
2021/03/17 06:21:18;;;;;;;48.42;38.40;;;;;;;1.30;75.08;100591.14;127980;1100;22502;-78
2021/03/17 06:23:53;;;;;;;47.73;38.92;;;;;;;1.24;75.94;100601.98;127986;1101;22566;-78
2021/03/17 06:26:22;;;;;;;53.20;42.45;;;;;;;1.23;76.27;100595.09;128053;1101;23251;-77
2021/03/17 06:28:51;;;;;;;47.30;39.65;;;;;;;1.25;75.96;100611.45;127976;1101;22484;-79
2021/03/17 06:31:20;;;;;;;41.48;35.00;;;;;;;1.25;76.04;100606.25;128195;1099;22508;-78
2021/03/17 06:33:59;;;;;;;46.77;37.13;;;;;;;1.24;75.50;100610.63;127965;1101;22486;-79
2021/03/17 06:36:28;;;;;;;47.05;38.23;;;;;;;1.20;76.45;100608.30;127974;1101;24277;-78
2021/03/17 06:39:10;;;;;;;49.75;39.35;;;;;;;1.22;76.29;100617.69;128197;1101;25061;-78
2021/03/17 06:41:54;;;;;;;43.17;35.43;;;;;;;1.20;76.14;100609.17;128048;1101;24682;-78
2021/03/17 06:44:26;;;;;;;45.52;34.30;;;;;;;1.16;75.60;100616.31;128000;1101;23405;-79
2021/03/17 06:47:21;;;;;;;42.08;34.67;;;;;;;1.13;75.82;100610.48;128204;1101;22486;-79
2021/03/17 06:49:54;;;;;;;37.17;30.70;;;;;;;1.12;76.38;100611.42;128208;1099;25099;-79
2021/03/17 06:52:40;;;;;;;40.85;33.30;;;;;;;1.12;76.59;100627.03;128050;1101;23719;-78
2021/03/17 06:55:19;;;;;;;38.45;30.35;;;;;;;1.16;76.36;100618.92;128074;1101;22381;-79
2021/03/17 06:57:52;;;;;;;38.80;29.48;;;;;;;1.18;76.66;100621.44;128201;1100;22494;-78
2021/03/17 07:00:36;;;;;;;37.05;28.70;;;;;;;1.21;76.80;100625.61;127961;1101;22521;-80
2021/03/17 07:03:12;;;;;;;34.43;27.13;;;;;;;1.25;76.52;100629.67;128021;1101;22518;-79
2021/03/17 07:05:47;;;;;;;34.73;27.37;;;;;;;1.27;76.44;100628.64;128333;1101;22485;-79
2021/03/17 07:08:36;;;;;;;35.40;29.37;;;;;;;1.32;77.16;100628.33;127997;1101;22499;-79
2021/03/17 07:11:04;;;;;;;36.33;29.43;;;;;;;1.34;77.37;100642.91;128208;1101;22619;-79
2021/03/17 07:13:33;;;;;;;35.73;30.27;;;;;;;1.36;76.55;100630.61;128022;1100;22490;-78
2021/03/17 07:16:01;;;;;;;36.00;28.73;;;;;;;1.39;76.69;100624.38;128023;1099;22998;-79
2021/03/17 07:18:32;;;;;;;40.08;32.70;;;;;;;1.47;76.68;100624.72;128058;1101;22637;-79
2021/03/17 07:21:04;;;;;;;43.02;32.95;;;;;;;1.59;77.56;100623.05;128280;1099;24294;-79
2021/03/17 07:23:34;;;;;;;;;;;;;;;1.72;77.30;100628.27;128382;1100;24577;-79
2021/03/17 07:26:26;;;;;;;38.25;29.70;;;;;;;1.83;77.83;100629.21;128108;1101;21306;-79
2021/03/17 07:29:12;;;;;;;44.18;34.67;;;;;;;2.07;78.67;100631.89;128133;1101;22945;-79
2021/03/17 07:31:51;;;;;;;41.18;32.30;;;;;;;2.34;78.74;100628.30;128062;1101;22470;-79
2021/03/17 07:34:27;;;;;;;37.88;30.05;;;;;;;2.56;78.51;100623.20;128089;1101;22938;-79
2021/03/17 07:37:02;;;;;;;40.40;31.75;;;;;;;2.72;77.35;100625.56;127993;1101;22492;-78
2021/03/17 07:39:40;;;;;;;37.67;31.57;;;;;;;2.92;77.74;100625.89;128084;1100;22503;-79
2021/03/17 07:42:13;;;;;;;38.98;32.53;;;;;;;3.24;77.47;100623.54;128290;1100;25037;-79
2021/03/17 07:44:43;;;;;;;38.88;32.05;;;;;;;3.62;77.45;100635.50;128252;1100;22579;-79
2021/03/17 07:47:14;;;;;;;36.68;30.10;;;;;;;3.94;77.01;100625.20;128118;1101;24342;-78
2021/03/17 07:49:48;;;;;;;38.40;30.97;;;;;;;4.24;76.70;100632.45;128062;1101;22632;-78
2021/03/17 07:52:26;;;;;;;34.30;28.65;;;;;;;4.53;75.74;100634.53;128283;1099;22520;-78
2021/03/17 07:55:06;;;;;;;34.70;29.32;;;;;;;4.78;75.47;100634.25;128246;1100;22481;-80
2021/03/17 07:57:35;;;;;;;30.17;26.87;;;;;;;4.97;74.14;100633.61;128282;1101;22579;-78
2021/03/17 08:00:04;;;;;;;34.08;27.15;;;;;;;5.11;73.35;100629.86;128037;1101;22553;-76
2021/03/17 08:02:40;;;;;;;31.95;28.55;;;;;;;5.27;72.24;100640.73;128030;1101;22492;-81
2021/03/17 08:05:10;;;;;;;35.13;27.10;;;;;;;5.32;71.08;100627.25;128002;1101;24253;-78
2021/03/17 08:07:39;;;;;;;37.00;32.63;;;;;;;5.33;70.40;100626.28;128312;1099;22491;-79
2021/03/17 08:10:08;;;;;;;35.78;27.60;;;;;;;5.46;70.62;100632.16;128261;1100;24594;-79
2021/03/17 08:12:37;;;;;;;30.40;23.70;;;;;;;5.59;70.23;100635.42;128016;1101;22538;-78
2021/03/17 08:15:08;;;;;;;28.70;23.18;;;;;;;5.84;70.48;100631.58;128274;1100;22489;-80
2021/03/17 08:17:36;;;;;;;33.23;24.55;;;;;;;6.05;69.32;100633.36;128050;1101;24402;-78
2021/03/17 08:20:13;;;;;;;26.80;21.50;;;;;;;6.20;68.62;100637.30;128052;1101;24610;-78
2021/03/17 08:22:41;;;;;;;28.55;20.45;;;;;;;6.41;68.56;100631.14;128226;1101;24575;-79
2021/03/17 08:25:11;;;;;;;31.03;21.13;;;;;;;6.85;69.26;100629.84;128029;1101;22522;-78
2021/03/17 08:27:40;;;;;;;20.62;17.90;;;;;;;7.07;66.72;100634.01;128004;1101;22498;-78
2021/03/17 08:30:14;;;;;;;24.05;18.57;;;;;;;7.18;65.26;100636.48;128242;1099;22472;-78
2021/03/17 08:32:55;;;;;;;19.17;17.17;;;;;;;7.29;64.89;100635.51;128127;1100;22528;-79
2021/03/17 08:35:23;;;;;;;18.67;16.35;;;;;;;7.32;63.60;100629.97;128063;1099;22501;-79
2021/03/17 08:37:55;;;;;;;22.48;18.80;;;;;;;7.19;62.77;100632.05;128061;1101;22518;-79
2021/03/17 08:40:29;;;;;;;24.87;20.92;;;;;;;7.32;63.86;100637.86;128275;1101;22489;-79
2021/03/17 08:43:28;;;;;;;22.30;19.80;;;;;;;7.65;63.08;100638.38;128233;1100;22595;-79
2021/03/17 08:46:18;;;;;;;22.25;19.95;;;;;;;7.61;61.43;100648.34;128247;1099;22496;-79
2021/03/17 08:49:10;;;;;;;22.87;19.30;;;;;;;7.44;60.91;100630.66;128068;1101;24316;-78
2021/03/17 08:51:44;;;;;;;29.27;20.55;;;;;;;7.40;60.91;100635.38;128069;1101;22524;-78
2021/03/17 08:54:31;;;;;;;21.70;18.10;;;;;;;7.23;59.68;100642.17;128241;1099;22522;-78
2021/03/17 08:57:06;;;;;;;22.32;20.02;;;;;;;6.98;59.90;100643.53;128191;1099;22526;-80
2021/03/17 08:59:43;;;;;;;28.20;21.17;;;;;;;6.80;59.83;100643.39;128202;1101;23108;-79
2021/03/17 09:02:27;;;;;;;30.90;27.73;;;;;;;6.60;59.68;100655.65;128014;1099;22624;-79
2021/03/17 09:05:02;;;;;;;26.05;22.52;;;;;;;6.51;60.19;100647.75;128327;1100;25586;-79
2021/03/17 09:07:34;;;;;;;24.80;20.25;;;;;;;6.68;60.73;100646.27;128271;1100;22490;-79
2021/03/17 09:10:18;;;;;;;14.83;13.30;;;;;;;6.96;60.77;100642.83;128054;1101;23521;-79
2021/03/17 09:12:46;;;;;;;17.70;15.68;;;;;;;7.61;61.18;100648.34;128208;1099;25218;-79
2021/03/17 09:15:20;;;;;;;17.32;15.60;;;;;;;8.29;60.01;100642.03;128256;1100;24581;-79
2021/03/17 09:17:54;;;;;;;18.00;16.12;;;;;;;8.53;57.42;100646.78;127990;1101;22526;-79
2021/03/17 09:20:38;;;;;;;18.73;16.73;;;;;;;8.34;55.90;100645.89;128209;1099;22513;-79
2021/03/17 09:23:22;;;;;;;19.85;17.75;;;;;;;7.97;55.62;100648.54;128231;1101;22523;-80
2021/03/17 09:25:56;;;;;;;23.77;17.45;;;;;;;7.64;55.81;100653.33;128247;1101;22646;-79
2021/03/17 09:28:30;;;;;;;22.27;17.80;;;;;;;7.37;55.80;100656.68;128018;1101;22527;-79
2021/03/17 09:31:05;;;;;;;20.53;18.33;;;;;;;7.12;55.65;100659.86;128250;1101;22519;-79
2021/03/17 09:33:36;;;;;;;22.48;17.70;;;;;;;6.81;55.97;100649.47;128141;1101;22566;-75
2021/03/17 09:36:10;;;;;;;17.35;15.58;;;;;;;6.62;56.35;100652.05;128321;1101;22508;-76
2021/03/17 09:38:47;;;;;;;19.62;17.57;;;;;;;6.67;57.54;100652.48;128010;1101;22499;-75
2021/03/17 09:41:17;;;;;;;23.52;19.92;;;;;;;6.71;57.59;100659.12;128058;1101;22565;-75
2021/03/17 09:44:03;;;;;;;24.52;19.85;;;;;;;6.64;57.05;100660.63;128237;1100;23406;-76
2021/03/17 09:46:42;;;;;;;22.55;20.08;;;;;;;6.51;56.92;100655.62;127960;1100;24931;-76
2021/03/17 09:49:18;;;;;;;24.87;20.25;;;;;;;6.44;57.38;100657.13;128008;1101;22466;-76
2021/03/17 09:51:59;;;;;;;23.45;20.23;;;;;;;6.34;57.14;100660.53;127998;1101;22489;-75
2021/03/17 09:54:30;;;;;;;25.20;19.37;;;;;;;6.17;56.91;100658.55;127950;1101;22499;-75
2021/03/17 09:57:07;;;;;;;23.27;17.23;;;;;;;6.07;57.09;100658.50;127954;1101;23173;-77
2021/03/17 09:59:42;;;;;;;22.30;19.87;;;;;;;5.94;56.78;100657.88;127962;1101;22617;-76
2021/03/17 10:02:25;;;;;;;23.87;20.60;;;;;;;5.83;57.53;100660.53;128356;1099;22543;-74
2021/03/17 10:05:01;;;;;;;27.85;21.75;;;;;;;5.77;58.23;100656.66;127979;1101;22567;-75
2021/03/17 10:07:34;;;;;;;28.12;22.93;;;;;;;5.75;58.25;100666.43;128195;1100;22484;-76
2021/03/17 10:10:06;;;;;;;23.47;19.90;;;;;;;5.63;58.07;100668.30;127939;1099;22573;-77
2021/03/17 10:12:34;;;;;;;21.07;18.48;;;;;;;5.58;57.74;100661.77;128108;1101;24587;-76
2021/03/17 10:15:13;;;;;;;31.50;21.90;;;;;;;5.55;58.18;100669.89;127988;1101;22576;-77
2021/03/17 10:17:43;;;;;;;27.30;21.97;;;;;;;5.46;57.91;100671.47;128206;1101;22613;-77
2021/03/17 10:20:16;;;;;;;24.00;21.30;;;;;;;5.43;58.24;100667.34;128207;1099;24277;-77
2021/03/17 10:22:48;;;;;;;28.00;23.90;;;;;;;5.32;58.30;100667.37;128076;1101;22529;-77
2021/03/17 10:25:21;;;;;;;29.32;24.67;;;;;;;5.23;58.33;100668.15;127992;1101;22528;-77
2021/03/17 10:27:53;;;;;;;36.70;26.48;;;;;;;5.21;58.75;100671.84;128061;1101;24414;-77
2021/03/17 10:30:38;;;;;;;40.63;29.23;;;;;;;5.21;58.61;100672.67;128048;1101;22596;-79
2021/03/17 10:33:14;;;;;;;43.95;35.23;;;;;;;5.30;59.31;100679.78;128061;1101;22530;-77
2021/03/17 10:35:44;;;;;;;37.10;29.12;;;;;;;5.42;59.37;100683.16;127997;1100;25145;-77
2021/03/17 10:38:13;;;;;;;37.03;28.23;;;;;;;5.50;59.95;100682.52;127994;1101;22488;-76
2021/03/17 10:40:41;;;;;;;31.42;26.97;;;;;;;5.53;59.93;100680.52;128154;1099;24278;-77
2021/03/17 10:43:13;;;;;;;30.85;24.98;;;;;;;5.52;59.82;100678.00;128152;1099;23235;-77
2021/03/17 10:45:53;;;;;;;35.40;25.80;;;;;;;5.50;59.71;100672.05;128479;1100;22564;-78
2021/03/17 10:48:26;;;;;;;42.00;31.10;;;;;;;5.50;60.01;100670.28;128033;1101;23474;-77
2021/03/17 10:50:56;;;;;;;31.27;26.57;;;;;;;5.52;59.73;100665.72;128065;1101;22495;-77
2021/03/17 10:53:34;;;;;;;31.12;25.30;;;;;;;5.44;59.42;100668.16;128059;1101;22487;-77
2021/03/17 10:56:02;;;;;;;32.63;26.97;;;;;;;5.35;59.36;100671.53;128128;1101;22525;-77
2021/03/17 10:58:40;;;;;;;35.75;25.15;;;;;;;5.25;59.29;100674.08;128066;1101;22509;-77
2021/03/17 11:01:22;;;;;;;29.12;24.63;;;;;;;5.17;60.09;100672.09;128130;1101;22489;-77
2021/03/17 11:04:06;;;;;;;28.92;25.48;;;;;;;5.14;59.65;100667.09;128085;1101;22499;-77
2021/03/17 11:06:35;;;;;;;27.10;23.85;;;;;;;5.09;60.29;100668.42;128063;1100;22514;-77
2021/03/17 11:09:06;;;;;;;29.45;24.02;;;;;;;5.06;59.72;100666.88;128072;1101;22481;-76
2021/03/17 11:11:55;;;;;;;34.35;23.92;;;;;;;5.05;60.29;100656.53;128084;1101;22490;-77
2021/03/17 11:14:35;;;;;;;30.52;25.08;;;;;;;5.17;60.49;100669.47;128119;1101;22492;-77
2021/03/17 11:17:12;;;;;;;28.55;22.70;;;;;;;5.51;61.62;100661.45;128352;1100;22591;-77
2021/03/17 11:19:40;;;;;;;18.37;16.00;;;;;;;5.75;60.02;100658.56;128081;1101;24664;-77
2021/03/17 11:22:10;;;;;;;17.87;16.07;;;;;;;5.80;59.35;100663.44;128072;1101;24619;-77
2021/03/17 11:24:39;;;;;;;19.27;17.27;;;;;;;5.78;58.24;100660.93;127971;1099;22501;-77
2021/03/17 11:27:28;;;;;;;30.88;21.65;;;;;;;5.77;58.45;100667.14;127987;1101;22484;-77
2021/03/17 11:29:57;;;;;;;36.38;28.30;;;;;;;5.71;58.21;100664.20;128067;1101;24666;-77
2021/03/17 11:32:31;;;;;;;23.60;21.10;;;;;;;5.70;57.61;100666.00;128027;1101;22565;-77
2021/03/17 11:34:59;;;;;;;24.50;22.00;;;;;;;5.64;57.40;100669.95;128255;1100;24623;-77
2021/03/17 11:37:28;;;;;;;27.25;21.87;;;;;;;5.63;57.30;100667.45;128005;1101;25563;-77
2021/03/17 11:39:59;;;;;;;22.30;19.90;;;;;;;5.65;57.87;100661.13;128050;1101;22490;-77
2021/03/17 11:42:30;;;;;;;18.60;16.55;;;;;;;5.77;58.07;100667.14;127964;1101;22495;-76
2021/03/17 11:45:13;;;;;;;21.62;17.77;;;;;;;5.87;57.74;100654.09;128178;1100;22493;-77
2021/03/17 11:47:41;;;;;;;20.15;17.95;;;;;;;5.99;57.91;100668.80;128258;1099;22493;-76